sensor_id;sensor_type;location;lat;lon;timestamp;temperature;humidity
15217;DHT22;7711;46.634;14.318;2023-03-05T00:00:07;-0.80;99.90
15217;DHT22;7711;46.634;14.318;2023-03-05T00:02:35;-0.80;99.90
15217;DHT22;7711;46.634;14.318;2023-03-05T00:05:02;-0.90;99.90
15217;DHT22;7711;46.634;14.318;2023-03-05T00:07:29;-0.90;99.90
15217;DHT22;7711;46.634;14.318;2023-03-05T00:09:58;-1.00;99.90
15217;DHT22;7711;46.634;14.318;2023-03-05T00:12:25;-1.10;99.90
15217;DHT22;7711;46.634;14.318;2023-03-05T00:14:52;-1.10;1.00
15217;DHT22;7711;46.634;14.318;2023-03-05T00:17:19;-1.20;1.00
15217;DHT22;7711;46.634;14.318;2023-03-05T00:19:47;-1.00;1.00
15217;DHT22;7711;46.634;14.318;2023-03-05T00:22:14;-1.00;1.00
15217;DHT22;7711;46.634;14.318;2023-03-05T00:24:41;-1.10;1.00
15217;DHT22;7711;46.634;14.318;2023-03-05T00:27:08;-1.10;1.00
15217;DHT22;7711;46.634;14.318;2023-03-05T00:29:35;-1.10;1.00
15217;DHT22;7711;46.634;14.318;2023-03-05T00:32:02;-1.10;1.00
15217;DHT22;7711;46.634;14.318;2023-03-05T00:34:29;-1.10;1.00
15217;DHT22;7711;46.634;14.318;2023-03-05T00:36:57;-0.90;1.00
15217;DHT22;7711;46.634;14.318;2023-03-05T00:39:24;-1.00;1.00
15217;DHT22;7711;46.634;14.318;2023-03-05T00:41:51;-1.20;1.00
15217;DHT22;7711;46.634;14.318;2023-03-05T00:44:19;-1.10;1.00
15217;DHT22;7711;46.634;14.318;2023-03-05T00:46:47;-1.10;1.00
15217;DHT22;7711;46.634;14.318;2023-03-05T00:49:14;-1.00;1.00
15217;DHT22;7711;46.634;14.318;2023-03-05T00:51:41;-1.00;1.00
15217;DHT22;7711;46.634;14.318;2023-03-05T00:54:09;-1.00;1.00
15217;DHT22;7711;46.634;14.318;2023-03-05T00:56:36;-1.10;1.00
15217;DHT22;7711;46.634;14.318;2023-03-05T00:59:03;-1.20;1.00
15217;DHT22;7711;46.634;14.318;2023-03-05T01:01:30;-1.20;1.00
15217;DHT22;7711;46.634;14.318;2023-03-05T01:03:57;-1.20;1.00
15217;DHT22;7711;46.634;14.318;2023-03-05T01:06:26;-1.10;1.00
15217;DHT22;7711;46.634;14.318;2023-03-05T01:08:54;-1.10;1.00
15217;DHT22;7711;46.634;14.318;2023-03-05T01:11:22;-1.10;1.00
15217;DHT22;7711;46.634;14.318;2023-03-05T01:13:49;-1.20;1.00
15217;DHT22;7711;46.634;14.318;2023-03-05T01:16:16;-1.30;1.00
15217;DHT22;7711;46.634;14.318;2023-03-05T01:18:43;-1.20;1.00
15217;DHT22;7711;46.634;14.318;2023-03-05T01:21:10;-1.20;1.00
15217;DHT22;7711;46.634;14.318;2023-03-05T01:23:38;-1.30;1.00
15217;DHT22;7711;46.634;14.318;2023-03-05T01:26:06;-1.40;1.00
15217;DHT22;7711;46.634;14.318;2023-03-05T01:28:35;-1.40;1.00
15217;DHT22;7711;46.634;14.318;2023-03-05T01:31:06;-1.40;1.00
15217;DHT22;7711;46.634;14.318;2023-03-05T01:33:33;-1.40;1.00
15217;DHT22;7711;46.634;14.318;2023-03-05T01:36:00;-1.50;1.00
15217;DHT22;7711;46.634;14.318;2023-03-05T01:38:27;-1.50;1.00
15217;DHT22;7711;46.634;14.318;2023-03-05T01:40:54;-1.50;1.00
15217;DHT22;7711;46.634;14.318;2023-03-05T01:43:24;-1.60;1.00
15217;DHT22;7711;46.634;14.318;2023-03-05T01:46:20;-1.60;1.00
15217;DHT22;7711;46.634;14.318;2023-03-05T01:48:51;-1.60;1.00
15217;DHT22;7711;46.634;14.318;2023-03-05T01:51:19;-1.70;1.00
15217;DHT22;7711;46.634;14.318;2023-03-05T01:53:48;-1.60;1.00
15217;DHT22;7711;46.634;14.318;2023-03-05T01:56:15;-1.70;1.00
15217;DHT22;7711;46.634;14.318;2023-03-05T01:58:44;-1.90;1.00
15217;DHT22;7711;46.634;14.318;2023-03-05T02:01:11;-1.80;1.00
15217;DHT22;7711;46.634;14.318;2023-03-05T02:03:40;-1.80;1.00
15217;DHT22;7711;46.634;14.318;2023-03-05T02:06:08;-1.90;1.00
15217;DHT22;7711;46.634;14.318;2023-03-05T02:08:35;-1.80;1.00
15217;DHT22;7711;46.634;14.318;2023-03-05T02:11:03;-1.90;1.00
15217;DHT22;7711;46.634;14.318;2023-03-05T02:13:31;-1.90;1.00
15217;DHT22;7711;46.634;14.318;2023-03-05T02:16:01;-1.70;1.00
15217;DHT22;7711;46.634;14.318;2023-03-05T02:18:28;-1.70;1.00
15217;DHT22;7711;46.634;14.318;2023-03-05T02:21:01;-1.70;1.00
15217;DHT22;7711;46.634;14.318;2023-03-05T02:23:30;-1.70;1.00
15217;DHT22;7711;46.634;14.318;2023-03-05T02:25:58;-1.80;1.00
15217;DHT22;7711;46.634;14.318;2023-03-05T02:28:28;-1.80;1.00
15217;DHT22;7711;46.634;14.318;2023-03-05T02:30:56;-1.90;1.00
15217;DHT22;7711;46.634;14.318;2023-03-05T02:33:23;-2.00;1.00
15217;DHT22;7711;46.634;14.318;2023-03-05T02:35:50;-1.90;1.00
15217;DHT22;7711;46.634;14.318;2023-03-05T02:38:21;-1.90;1.00
15217;DHT22;7711;46.634;14.318;2023-03-05T02:40:48;-1.90;1.00
15217;DHT22;7711;46.634;14.318;2023-03-05T02:43:15;-1.90;1.00
15217;DHT22;7711;46.634;14.318;2023-03-05T02:45:42;-2.00;1.00
15217;DHT22;7711;46.634;14.318;2023-03-05T02:48:09;-2.00;1.00
15217;DHT22;7711;46.634;14.318;2023-03-05T02:50:36;-2.10;1.00
15217;DHT22;7711;46.634;14.318;2023-03-05T02:53:04;-2.10;1.00
15217;DHT22;7711;46.634;14.318;2023-03-05T02:55:33;-2.10;1.00
15217;DHT22;7711;46.634;14.318;2023-03-05T02:58:00;-2.00;1.00
15217;DHT22;7711;46.634;14.318;2023-03-05T03:00:27;-2.10;1.00
15217;DHT22;7711;46.634;14.318;2023-03-05T03:02:54;-2.10;1.00
15217;DHT22;7711;46.634;14.318;2023-03-05T03:05:21;-2.20;1.00
15217;DHT22;7711;46.634;14.318;2023-03-05T03:07:49;-2.20;1.00
15217;DHT22;7711;46.634;14.318;2023-03-05T03:10:16;-2.20;1.00
15217;DHT22;7711;46.634;14.318;2023-03-05T03:12:45;-2.30;1.00
15217;DHT22;7711;46.634;14.318;2023-03-05T03:15:14;-2.40;1.00
15217;DHT22;7711;46.634;14.318;2023-03-05T03:17:42;-2.50;1.00
15217;DHT22;7711;46.634;14.318;2023-03-05T03:20:11;-2.50;1.00
15217;DHT22;7711;46.634;14.318;2023-03-05T03:22:39;-2.50;1.00
15217;DHT22;7711;46.634;14.318;2023-03-05T03:25:07;-2.60;1.00
15217;DHT22;7711;46.634;14.318;2023-03-05T03:27:35;-2.40;1.00
15217;DHT22;7711;46.634;14.318;2023-03-05T03:30:05;-2.40;1.00
15217;DHT22;7711;46.634;14.318;2023-03-05T03:32:32;-2.40;1.00
15217;DHT22;7711;46.634;14.318;2023-03-05T03:34:59;-2.30;1.00
15217;DHT22;7711;46.634;14.318;2023-03-05T03:37:27;-2.30;1.00
15217;DHT22;7711;46.634;14.318;2023-03-05T03:39:54;-2.40;1.00
15217;DHT22;7711;46.634;14.318;2023-03-05T03:42:22;-2.50;1.00
15217;DHT22;7711;46.634;14.318;2023-03-05T03:44:50;-2.50;1.00
15217;DHT22;7711;46.634;14.318;2023-03-05T03:47:18;-2.60;1.00
15217;DHT22;7711;46.634;14.318;2023-03-05T03:49:45;-2.70;1.00
15217;DHT22;7711;46.634;14.318;2023-03-05T03:52:12;-2.60;1.00
15217;DHT22;7711;46.634;14.318;2023-03-05T03:54:39;-2.70;1.00
15217;DHT22;7711;46.634;14.318;2023-03-05T03:57:06;-2.70;1.00
15217;DHT22;7711;46.634;14.318;2023-03-05T03:59:33;-2.70;1.00
15217;DHT22;7711;46.634;14.318;2023-03-05T04:02:00;-2.80;1.00
15217;DHT22;7711;46.634;14.318;2023-03-05T04:04:28;-2.80;1.00
15217;DHT22;7711;46.634;14.318;2023-03-05T04:06:55;-2.90;1.00
15217;DHT22;7711;46.634;14.318;2023-03-05T04:09:22;-2.90;1.00
15217;DHT22;7711;46.634;14.318;2023-03-05T04:11:49;-2.80;1.00
15217;DHT22;7711;46.634;14.318;2023-03-05T04:14:16;-2.90;1.00
15217;DHT22;7711;46.634;14.318;2023-03-05T04:16:43;-2.90;1.00
15217;DHT22;7711;46.634;14.318;2023-03-05T04:19:10;-3.00;1.00
15217;DHT22;7711;46.634;14.318;2023-03-05T04:21:39;-2.90;1.00
15217;DHT22;7711;46.634;14.318;2023-03-05T04:24:07;-2.80;1.00
15217;DHT22;7711;46.634;14.318;2023-03-05T04:26:34;-2.90;1.00
15217;DHT22;7711;46.634;14.318;2023-03-05T04:29:01;-2.90;1.00
15217;DHT22;7711;46.634;14.318;2023-03-05T04:31:28;-3.00;1.00
15217;DHT22;7711;46.634;14.318;2023-03-05T04:33:55;-3.00;1.00
15217;DHT22;7711;46.634;14.318;2023-03-05T04:36:22;-3.10;1.00
15217;DHT22;7711;46.634;14.318;2023-03-05T04:38:50;-3.00;1.00
15217;DHT22;7711;46.634;14.318;2023-03-05T04:41:17;-3.10;1.00
15217;DHT22;7711;46.634;14.318;2023-03-05T04:43:44;-3.00;1.00
15217;DHT22;7711;46.634;14.318;2023-03-05T04:46:11;-3.00;1.00
15217;DHT22;7711;46.634;14.318;2023-03-05T04:48:38;-2.90;1.00
15217;DHT22;7711;46.634;14.318;2023-03-05T04:51:05;-2.90;1.00
15217;DHT22;7711;46.634;14.318;2023-03-05T04:53:32;-3.00;1.00
15217;DHT22;7711;46.634;14.318;2023-03-05T04:56:01;-3.10;1.00
15217;DHT22;7711;46.634;14.318;2023-03-05T04:58:28;-3.20;1.00
15217;DHT22;7711;46.634;14.318;2023-03-05T05:00:59;-3.20;1.00
15217;DHT22;7711;46.634;14.318;2023-03-05T05:03:27;-3.20;1.00
15217;DHT22;7711;46.634;14.318;2023-03-05T05:05:55;-3.20;1.00
15217;DHT22;7711;46.634;14.318;2023-03-05T05:08:22;-3.20;1.00
15217;DHT22;7711;46.634;14.318;2023-03-05T05:10:57;-3.20;1.00
15217;DHT22;7711;46.634;14.318;2023-03-05T05:13:25;-3.20;1.00
15217;DHT22;7711;46.634;14.318;2023-03-05T05:15:52;-3.30;1.00
15217;DHT22;7711;46.634;14.318;2023-03-05T05:18:19;-3.30;1.00
15217;DHT22;7711;46.634;14.318;2023-03-05T05:20:46;-3.30;1.00
15217;DHT22;7711;46.634;14.318;2023-03-05T05:23:14;-3.30;1.00
15217;DHT22;7711;46.634;14.318;2023-03-05T05:25:41;-3.20;1.00
15217;DHT22;7711;46.634;14.318;2023-03-05T05:28:09;-3.20;1.00
15217;DHT22;7711;46.634;14.318;2023-03-05T05:30:38;-3.30;1.00
15217;DHT22;7711;46.634;14.318;2023-03-05T05:33:05;-3.40;1.00
15217;DHT22;7711;46.634;14.318;2023-03-05T05:35:31;-3.20;1.00
15217;DHT22;7711;46.634;14.318;2023-03-05T05:37:58;-3.20;1.00
15217;DHT22;7711;46.634;14.318;2023-03-05T05:40:25;-3.30;1.00
15217;DHT22;7711;46.634;14.318;2023-03-05T05:42:52;-3.40;1.00
15217;DHT22;7711;46.634;14.318;2023-03-05T05:45:19;-3.30;1.00
15217;DHT22;7711;46.634;14.318;2023-03-05T05:47:48;-3.30;1.00
15217;DHT22;7711;46.634;14.318;2023-03-05T05:50:15;-3.10;1.00
15217;DHT22;7711;46.634;14.318;2023-03-05T05:52:42;-3.10;1.00
15217;DHT22;7711;46.634;14.318;2023-03-05T05:55:10;-3.10;1.00
15217;DHT22;7711;46.634;14.318;2023-03-05T05:57:37;-3.20;1.00
15217;DHT22;7711;46.634;14.318;2023-03-05T06:00:06;-3.20;1.00
15217;DHT22;7711;46.634;14.318;2023-03-05T06:02:36;-3.10;1.00
15217;DHT22;7711;46.634;14.318;2023-03-05T06:05:05;-2.90;1.00
15217;DHT22;7711;46.634;14.318;2023-03-05T06:07:33;-3.00;1.00
15217;DHT22;7711;46.634;14.318;2023-03-05T06:10:01;-3.00;1.00
15217;DHT22;7711;46.634;14.318;2023-03-05T06:12:28;-2.90;1.00
15217;DHT22;7711;46.634;14.318;2023-03-05T06:14:55;-2.90;1.00
15217;DHT22;7711;46.634;14.318;2023-03-05T06:17:23;-2.80;1.00
15217;DHT22;7711;46.634;14.318;2023-03-05T06:19:52;-2.80;1.00
15217;DHT22;7711;46.634;14.318;2023-03-05T06:22:21;-2.80;1.00
15217;DHT22;7711;46.634;14.318;2023-03-05T06:24:48;-2.80;1.00
15217;DHT22;7711;46.634;14.318;2023-03-05T06:27:15;-2.70;1.00
15217;DHT22;7711;46.634;14.318;2023-03-05T06:29:42;-2.70;1.00
15217;DHT22;7711;46.634;14.318;2023-03-05T06:32:09;-2.60;1.00
15217;DHT22;7711;46.634;14.318;2023-03-05T06:34:36;-2.50;1.00
15217;DHT22;7711;46.634;14.318;2023-03-05T06:37:03;-2.40;1.00
15217;DHT22;7711;46.634;14.318;2023-03-05T06:39:31;-2.40;1.00
15217;DHT22;7711;46.634;14.318;2023-03-05T06:41:58;-2.40;1.00
15217;DHT22;7711;46.634;14.318;2023-03-05T06:44:25;-2.20;1.00
15217;DHT22;7711;46.634;14.318;2023-03-05T06:46:52;-2.20;1.00
15217;DHT22;7711;46.634;14.318;2023-03-05T06:49:19;-2.00;1.00
15217;DHT22;7711;46.634;14.318;2023-03-05T06:51:47;-1.90;1.00
15217;DHT22;7711;46.634;14.318;2023-03-05T06:54:15;-1.80;1.00
15217;DHT22;7711;46.634;14.318;2023-03-05T06:56:44;-1.80;1.00
15217;DHT22;7711;46.634;14.318;2023-03-05T06:59:13;-1.60;1.00
15217;DHT22;7711;46.634;14.318;2023-03-05T07:01:40;-1.40;1.00
15217;DHT22;7711;46.634;14.318;2023-03-05T07:04:07;-1.30;1.00
15217;DHT22;7711;46.634;14.318;2023-03-05T07:06:36;-1.20;99.90
15217;DHT22;7711;46.634;14.318;2023-03-05T07:09:05;-1.00;99.90
15217;DHT22;7711;46.634;14.318;2023-03-05T07:11:33;-0.90;99.90
15217;DHT22;7711;46.634;14.318;2023-03-05T07:14:02;-0.80;99.90
15217;DHT22;7711;46.634;14.318;2023-03-05T07:16:31;-0.90;99.90
15217;DHT22;7711;46.634;14.318;2023-03-05T07:19:00;-0.70;99.90
15217;DHT22;7711;46.634;14.318;2023-03-05T07:21:31;-0.70;99.90
15217;DHT22;7711;46.634;14.318;2023-03-05T07:24:02;-0.60;99.90
15217;DHT22;7711;46.634;14.318;2023-03-05T07:26:29;-0.60;99.90
15217;DHT22;7711;46.634;14.318;2023-03-05T07:28:58;-0.60;99.90
15217;DHT22;7711;46.634;14.318;2023-03-05T07:31:27;-0.40;99.90
15217;DHT22;7711;46.634;14.318;2023-03-05T07:33:57;-0.30;99.90
15217;DHT22;7711;46.634;14.318;2023-03-05T07:36:24;-0.30;99.90
15217;DHT22;7711;46.634;14.318;2023-03-05T07:38:52;-0.30;99.90
15217;DHT22;7711;46.634;14.318;2023-03-05T07:41:20;-0.30;99.90
15217;DHT22;7711;46.634;14.318;2023-03-05T07:43:49;-0.30;99.90
15217;DHT22;7711;46.634;14.318;2023-03-05T07:46:19;-0.20;99.90
15217;DHT22;7711;46.634;14.318;2023-03-05T07:48:48;-0.10;99.90
15217;DHT22;7711;46.634;14.318;2023-03-05T07:51:17;0.00;99.90
15217;DHT22;7711;46.634;14.318;2023-03-05T07:53:45;0.10;99.90
15217;DHT22;7711;46.634;14.318;2023-03-05T07:56:13;0.20;99.90
15217;DHT22;7711;46.634;14.318;2023-03-05T07:58:46;0.40;99.90
15217;DHT22;7711;46.634;14.318;2023-03-05T08:01:13;0.50;99.90
15217;DHT22;7711;46.634;14.318;2023-03-05T08:03:40;0.60;99.90
15217;DHT22;7711;46.634;14.318;2023-03-05T08:06:09;0.50;99.90
15217;DHT22;7711;46.634;14.318;2023-03-05T08:08:37;0.50;99.90
15217;DHT22;7711;46.634;14.318;2023-03-05T08:11:05;0.60;99.90
15217;DHT22;7711;46.634;14.318;2023-03-05T08:13:32;0.80;99.90
15217;DHT22;7711;46.634;14.318;2023-03-05T08:16:03;0.90;99.90
15217;DHT22;7711;46.634;14.318;2023-03-05T08:18:31;0.70;99.90
15217;DHT22;7711;46.634;14.318;2023-03-05T08:20:58;0.80;99.90
15217;DHT22;7711;46.634;14.318;2023-03-05T08:23:27;0.80;99.90
15217;DHT22;7711;46.634;14.318;2023-03-05T08:25:54;0.90;99.90
15217;DHT22;7711;46.634;14.318;2023-03-05T08:28:22;1.10;99.90
15217;DHT22;7711;46.634;14.318;2023-03-05T08:30:49;1.30;99.90
15217;DHT22;7711;46.634;14.318;2023-03-05T08:33:16;1.30;99.90
15217;DHT22;7711;46.634;14.318;2023-03-05T08:35:44;1.30;99.90
15217;DHT22;7711;46.634;14.318;2023-03-05T08:38:11;1.30;99.90
15217;DHT22;7711;46.634;14.318;2023-03-05T08:40:39;1.50;99.90
15217;DHT22;7711;46.634;14.318;2023-03-05T08:43:07;1.60;99.90
15217;DHT22;7711;46.634;14.318;2023-03-05T08:45:34;1.60;99.90
15217;DHT22;7711;46.634;14.318;2023-03-05T08:48:01;1.80;99.90
15217;DHT22;7711;46.634;14.318;2023-03-05T08:50:28;2.00;99.90
15217;DHT22;7711;46.634;14.318;2023-03-05T08:52:55;1.90;99.90
15217;DHT22;7711;46.634;14.318;2023-03-05T08:55:23;2.10;99.90
15217;DHT22;7711;46.634;14.318;2023-03-05T08:57:51;2.30;99.90
15217;DHT22;7711;46.634;14.318;2023-03-05T09:00:19;2.40;99.90
15217;DHT22;7711;46.634;14.318;2023-03-05T09:02:46;2.40;99.90
15217;DHT22;7711;46.634;14.318;2023-03-05T09:05:13;2.60;99.90
15217;DHT22;7711;46.634;14.318;2023-03-05T09:07:41;2.60;99.90
15217;DHT22;7711;46.634;14.318;2023-03-05T09:10:09;2.60;99.90
15217;DHT22;7711;46.634;14.318;2023-03-05T09:12:38;2.90;99.90
15217;DHT22;7711;46.634;14.318;2023-03-05T09:15:09;2.80;99.90
15217;DHT22;7711;46.634;14.318;2023-03-05T09:17:37;2.90;99.90
15217;DHT22;7711;46.634;14.318;2023-03-05T09:20:09;3.00;99.90
15217;DHT22;7711;46.634;14.318;2023-03-05T09:22:37;3.10;99.90
15217;DHT22;7711;46.634;14.318;2023-03-05T09:25:05;3.10;99.90
15217;DHT22;7711;46.634;14.318;2023-03-05T09:27:33;3.10;99.90
15217;DHT22;7711;46.634;14.318;2023-03-05T09:30:01;3.30;99.90
15217;DHT22;7711;46.634;14.318;2023-03-05T09:32:30;3.50;99.90
15217;DHT22;7711;46.634;14.318;2023-03-05T09:34:57;3.30;99.90
15217;DHT22;7711;46.634;14.318;2023-03-05T09:37:24;3.40;99.90
15217;DHT22;7711;46.634;14.318;2023-03-05T09:39:52;3.70;99.90
15217;DHT22;7711;46.634;14.318;2023-03-05T09:42:39;3.60;99.90
15217;DHT22;7711;46.634;14.318;2023-03-05T09:45:17;3.60;99.90
15217;DHT22;7711;46.634;14.318;2023-03-05T09:47:55;3.50;99.90
15217;DHT22;7711;46.634;14.318;2023-03-05T09:50:36;3.70;99.90
15217;DHT22;7711;46.634;14.318;2023-03-05T09:53:12;4.00;99.90
15217;DHT22;7711;46.634;14.318;2023-03-05T09:55:43;4.40;99.90
15217;DHT22;7711;46.634;14.318;2023-03-05T09:58:13;4.60;99.90
15217;DHT22;7711;46.634;14.318;2023-03-05T10:00:43;4.70;99.90
15217;DHT22;7711;46.634;14.318;2023-03-05T10:03:19;4.60;99.90
15217;DHT22;7711;46.634;14.318;2023-03-05T10:06:00;4.90;99.90
15217;DHT22;7711;46.634;14.318;2023-03-05T10:08:32;5.00;99.90
15217;DHT22;7711;46.634;14.318;2023-03-05T10:11:16;5.20;99.90
15217;DHT22;7711;46.634;14.318;2023-03-05T10:13:45;5.10;99.90
15217;DHT22;7711;46.634;14.318;2023-03-05T10:19:23;5.30;99.90
15217;DHT22;7711;46.634;14.318;2023-03-05T10:22:09;5.60;99.90
15217;DHT22;7711;46.634;14.318;2023-03-05T10:24:47;5.80;99.90
15217;DHT22;7711;46.634;14.318;2023-03-05T10:27:19;5.90;99.90
15217;DHT22;7711;46.634;14.318;2023-03-05T10:30:01;5.70;99.90
15217;DHT22;7711;46.634;14.318;2023-03-05T10:32:39;6.10;99.90
15217;DHT22;7711;46.634;14.318;2023-03-05T10:35:22;6.20;99.90
15217;DHT22;7711;46.634;14.318;2023-03-05T10:40:46;6.10;99.90
15217;DHT22;7711;46.634;14.318;2023-03-05T10:43:24;6.60;99.90
15217;DHT22;7711;46.634;14.318;2023-03-05T10:45:54;6.60;99.90
15217;DHT22;7711;46.634;14.318;2023-03-05T10:48:35;6.60;99.90
15217;DHT22;7711;46.634;14.318;2023-03-05T10:51:11;7.00;99.90
15217;DHT22;7711;46.634;14.318;2023-03-05T10:53:47;7.10;99.90
15217;DHT22;7711;46.634;14.318;2023-03-05T10:56:20;7.10;99.90
15217;DHT22;7711;46.634;14.318;2023-03-05T10:58:48;7.10;99.90
15217;DHT22;7711;46.634;14.318;2023-03-05T11:01:23;7.00;99.90
15217;DHT22;7711;46.634;14.318;2023-03-05T11:03:53;6.90;99.90
15217;DHT22;7711;46.634;14.318;2023-03-05T11:06:38;7.00;99.90
15217;DHT22;7711;46.634;14.318;2023-03-05T11:09:29;7.20;99.90
15217;DHT22;7711;46.634;14.318;2023-03-05T11:12:10;7.00;99.90
15217;DHT22;7711;46.634;14.318;2023-03-05T11:14:39;6.90;99.90
15217;DHT22;7711;46.634;14.318;2023-03-05T11:17:26;7.00;99.90
15217;DHT22;7711;46.634;14.318;2023-03-05T11:19:54;7.20;99.90
15217;DHT22;7711;46.634;14.318;2023-03-05T11:22:24;7.30;99.90
15217;DHT22;7711;46.634;14.318;2023-03-05T11:25:13;7.40;99.90
15217;DHT22;7711;46.634;14.318;2023-03-05T11:27:48;7.30;99.90
15217;DHT22;7711;46.634;14.318;2023-03-05T11:30:21;7.50;99.90
15217;DHT22;7711;46.634;14.318;2023-03-05T11:33:06;7.60;99.90
15217;DHT22;7711;46.634;14.318;2023-03-05T11:35:36;7.40;99.90
15217;DHT22;7711;46.634;14.318;2023-03-05T11:38:09;7.20;99.90
15217;DHT22;7711;46.634;14.318;2023-03-05T11:40:41;7.30;99.90
15217;DHT22;7711;46.634;14.318;2023-03-05T11:43:13;7.70;99.90
15217;DHT22;7711;46.634;14.318;2023-03-05T11:45:43;8.10;99.90
15217;DHT22;7711;46.634;14.318;2023-03-05T11:48:15;8.00;99.90
15217;DHT22;7711;46.634;14.318;2023-03-05T11:50:46;8.40;99.90
15217;DHT22;7711;46.634;14.318;2023-03-05T11:53:20;8.70;99.90
15217;DHT22;7711;46.634;14.318;2023-03-05T11:55:51;8.90;99.90
15217;DHT22;7711;46.634;14.318;2023-03-05T11:58:28;9.00;99.90
15217;DHT22;7711;46.634;14.318;2023-03-05T12:00:58;9.00;99.90
15217;DHT22;7711;46.634;14.318;2023-03-05T12:03:31;9.10;99.90
15217;DHT22;7711;46.634;14.318;2023-03-05T12:06:02;8.70;99.90
15217;DHT22;7711;46.634;14.318;2023-03-05T12:08:37;8.80;99.90
15217;DHT22;7711;46.634;14.318;2023-03-05T12:11:16;8.90;99.90
15217;DHT22;7711;46.634;14.318;2023-03-05T12:13:47;9.10;99.90
15217;DHT22;7711;46.634;14.318;2023-03-05T12:16:22;9.10;99.90
15217;DHT22;7711;46.634;14.318;2023-03-05T12:19:01;9.40;99.90
15217;DHT22;7711;46.634;14.318;2023-03-05T12:21:35;9.50;99.90
15217;DHT22;7711;46.634;14.318;2023-03-05T12:24:34;9.40;99.90
15217;DHT22;7711;46.634;14.318;2023-03-05T12:27:11;9.60;99.90
15217;DHT22;7711;46.634;14.318;2023-03-05T12:29:46;9.70;99.90
15217;DHT22;7711;46.634;14.318;2023-03-05T12:35:37;9.20;99.90
15217;DHT22;7711;46.634;14.318;2023-03-05T12:38:18;9.80;99.90
15217;DHT22;7711;46.634;14.318;2023-03-05T12:44:19;10.00;99.90
15217;DHT22;7711;46.634;14.318;2023-03-05T12:47:17;10.20;99.90
15217;DHT22;7711;46.634;14.318;2023-03-05T12:49:49;10.40;99.90
15217;DHT22;7711;46.634;14.318;2023-03-05T12:52:24;10.60;99.90
15217;DHT22;7711;46.634;14.318;2023-03-05T12:55:25;10.40;99.90
15217;DHT22;7711;46.634;14.318;2023-03-05T12:57:57;10.70;99.90
15217;DHT22;7711;46.634;14.318;2023-03-05T13:00:32;10.60;99.90
15217;DHT22;7711;46.634;14.318;2023-03-05T13:03:08;10.60;99.90
15217;DHT22;7711;46.634;14.318;2023-03-05T13:05:37;10.70;99.90
15217;DHT22;7711;46.634;14.318;2023-03-05T13:08:15;10.80;99.90
15217;DHT22;7711;46.634;14.318;2023-03-05T13:10:50;10.80;99.90
15217;DHT22;7711;46.634;14.318;2023-03-05T13:13:18;10.70;99.90
15217;DHT22;7711;46.634;14.318;2023-03-05T13:15:50;11.00;99.90
15217;DHT22;7711;46.634;14.318;2023-03-05T13:18:19;10.80;99.90
15217;DHT22;7711;46.634;14.318;2023-03-05T13:20:47;11.00;99.90
15217;DHT22;7711;46.634;14.318;2023-03-05T13:23:22;11.60;99.90
15217;DHT22;7711;46.634;14.318;2023-03-05T13:26:00;11.90;99.90
15217;DHT22;7711;46.634;14.318;2023-03-05T13:28:28;12.80;99.90
15217;DHT22;7711;46.634;14.318;2023-03-05T13:30:59;13.90;99.90
15217;DHT22;7711;46.634;14.318;2023-03-05T13:33:32;14.10;99.90
15217;DHT22;7711;46.634;14.318;2023-03-05T13:36:02;15.00;99.90
15217;DHT22;7711;46.634;14.318;2023-03-05T13:38:34;14.50;99.90
15217;DHT22;7711;46.634;14.318;2023-03-05T13:41:07;15.70;99.90
15217;DHT22;7711;46.634;14.318;2023-03-05T13:43:45;15.90;99.90
15217;DHT22;7711;46.634;14.318;2023-03-05T13:46:23;16.40;99.90
15217;DHT22;7711;46.634;14.318;2023-03-05T13:48:50;16.70;99.90
15217;DHT22;7711;46.634;14.318;2023-03-05T13:51:18;17.00;99.90
15217;DHT22;7711;46.634;14.318;2023-03-05T13:53:46;16.90;99.90
15217;DHT22;7711;46.634;14.318;2023-03-05T13:56:17;16.80;99.90
15217;DHT22;7711;46.634;14.318;2023-03-05T13:58:50;16.70;99.90
15217;DHT22;7711;46.634;14.318;2023-03-05T14:01:30;16.60;99.90
15217;DHT22;7711;46.634;14.318;2023-03-05T14:04:06;16.00;99.90
15217;DHT22;7711;46.634;14.318;2023-03-05T14:06:40;16.60;99.90
15217;DHT22;7711;46.634;14.318;2023-03-05T14:09:17;17.00;99.90
15217;DHT22;7711;46.634;14.318;2023-03-05T14:11:58;17.20;99.90
15217;DHT22;7711;46.634;14.318;2023-03-05T14:14:27;17.10;99.90
15217;DHT22;7711;46.634;14.318;2023-03-05T14:17:27;17.40;99.90
15217;DHT22;7711;46.634;14.318;2023-03-05T14:20:13;16.90;99.90
15217;DHT22;7711;46.634;14.318;2023-03-05T14:22:45;16.50;99.90
15217;DHT22;7711;46.634;14.318;2023-03-05T14:25:32;16.00;99.90
15217;DHT22;7711;46.634;14.318;2023-03-05T14:28:00;16.70;99.90
15217;DHT22;7711;46.634;14.318;2023-03-05T14:30:29;16.50;99.90
15217;DHT22;7711;46.634;14.318;2023-03-05T14:32:59;16.90;99.90
15217;DHT22;7711;46.634;14.318;2023-03-05T14:35:29;16.90;99.90
15217;DHT22;7711;46.634;14.318;2023-03-05T14:37:58;16.70;99.90
15217;DHT22;7711;46.634;14.318;2023-03-05T14:40:30;16.40;99.90
15217;DHT22;7711;46.634;14.318;2023-03-05T14:42:58;16.50;99.90
15217;DHT22;7711;46.634;14.318;2023-03-05T14:45:28;16.30;99.90
15217;DHT22;7711;46.634;14.318;2023-03-05T14:48:00;16.30;99.90
15217;DHT22;7711;46.634;14.318;2023-03-05T14:50:31;15.90;99.90
15217;DHT22;7711;46.634;14.318;2023-03-05T14:53:02;15.80;99.90
15217;DHT22;7711;46.634;14.318;2023-03-05T14:55:34;16.10;99.90
15217;DHT22;7711;46.634;14.318;2023-03-05T14:58:11;16.40;99.90
15217;DHT22;7711;46.634;14.318;2023-03-05T15:00:41;16.50;99.90
15217;DHT22;7711;46.634;14.318;2023-03-05T15:03:12;16.40;99.90
15217;DHT22;7711;46.634;14.318;2023-03-05T15:05:41;16.20;99.90
15217;DHT22;7711;46.634;14.318;2023-03-05T15:08:13;16.00;99.90
15217;DHT22;7711;46.634;14.318;2023-03-05T15:10:42;15.90;99.90
15217;DHT22;7711;46.634;14.318;2023-03-05T15:13:12;15.40;99.90
15217;DHT22;7711;46.634;14.318;2023-03-05T15:15:41;15.40;99.90
15217;DHT22;7711;46.634;14.318;2023-03-05T15:18:11;14.60;99.90
15217;DHT22;7711;46.634;14.318;2023-03-05T15:20:42;14.70;99.90
15217;DHT22;7711;46.634;14.318;2023-03-05T15:23:11;15.00;99.90
15217;DHT22;7711;46.634;14.318;2023-03-05T15:25:40;14.90;99.90
15217;DHT22;7711;46.634;14.318;2023-03-05T15:28:09;14.60;99.90
15217;DHT22;7711;46.634;14.318;2023-03-05T15:30:39;14.80;99.90
15217;DHT22;7711;46.634;14.318;2023-03-05T15:33:08;14.80;99.90
15217;DHT22;7711;46.634;14.318;2023-03-05T15:35:39;15.00;99.90
15217;DHT22;7711;46.634;14.318;2023-03-05T15:38:08;14.40;99.90
15217;DHT22;7711;46.634;14.318;2023-03-05T15:40:37;14.50;99.90
15217;DHT22;7711;46.634;14.318;2023-03-05T15:43:07;14.30;99.90
15217;DHT22;7711;46.634;14.318;2023-03-05T15:45:37;14.30;99.90
15217;DHT22;7711;46.634;14.318;2023-03-05T15:48:06;13.40;99.90
15217;DHT22;7711;46.634;14.318;2023-03-05T15:50:34;13.10;99.90
15217;DHT22;7711;46.634;14.318;2023-03-05T15:53:04;12.80;99.90
15217;DHT22;7711;46.634;14.318;2023-03-05T15:55:37;12.30;99.90
15217;DHT22;7711;46.634;14.318;2023-03-05T15:58:05;11.80;99.90
15217;DHT22;7711;46.634;14.318;2023-03-05T16:00:35;11.30;99.90
15217;DHT22;7711;46.634;14.318;2023-03-05T16:03:04;10.80;99.90
15217;DHT22;7711;46.634;14.318;2023-03-05T16:05:33;10.40;99.90
15217;DHT22;7711;46.634;14.318;2023-03-05T16:08:07;10.10;99.90
15217;DHT22;7711;46.634;14.318;2023-03-05T16:10:35;9.80;99.90
15217;DHT22;7711;46.634;14.318;2023-03-05T16:13:08;9.50;99.90